sensor_id;sensor_type;location;lat;lon;timestamp;P1;durP1;ratioP1;P2;durP2;ratioP2
34765;SDS011;20984;43.508;1.504;2023-07-13T00:02:14;4.72;;;3.20;;
34765;SDS011;20984;43.508;1.504;2023-07-13T00:04:40;4.45;;;2.60;;
34765;SDS011;20984;43.508;1.504;2023-07-13T00:07:06;3.72;;;2.47;;
34765;SDS011;20984;43.508;1.504;2023-07-13T00:09:33;5.28;;;2.95;;
34765;SDS011;20984;43.508;1.504;2023-07-13T00:11:59;4.78;;;3.10;;
34765;SDS011;20984;43.508;1.504;2023-07-13T00:14:25;6.28;;;3.10;;
34765;SDS011;20984;43.508;1.504;2023-07-13T00:16:52;4.38;;;2.65;;
34765;SDS011;20984;43.508;1.504;2023-07-13T00:19:18;6.50;;;2.92;;
34765;SDS011;20984;43.508;1.504;2023-07-13T00:21:44;3.70;;;2.80;;
34765;SDS011;20984;43.508;1.504;2023-07-13T00:24:12;4.60;;;2.83;;
34765;SDS011;20984;43.508;1.504;2023-07-13T00:26:39;4.72;;;2.65;;
34765;SDS011;20984;43.508;1.504;2023-07-13T00:29:05;5.10;;;2.78;;
34765;SDS011;20984;43.508;1.504;2023-07-13T00:31:33;4.40;;;2.70;;
34765;SDS011;20984;43.508;1.504;2023-07-13T00:34:00;4.70;;;2.63;;
34765;SDS011;20984;43.508;1.504;2023-07-13T00:36:26;4.55;;;2.95;;
34765;SDS011;20984;43.508;1.504;2023-07-13T00:38:52;8.20;;;2.60;;
34765;SDS011;20984;43.508;1.504;2023-07-13T00:41:18;5.53;;;2.60;;
34765;SDS011;20984;43.508;1.504;2023-07-13T00:43:44;4.78;;;2.95;;
34765;SDS011;20984;43.508;1.504;2023-07-13T00:46:13;9.25;;;2.65;;
34765;SDS011;20984;43.508;1.504;2023-07-13T00:48:45;5.63;;;2.67;;
34765;SDS011;20984;43.508;1.504;2023-07-13T00:51:13;3.67;;;2.70;;
34765;SDS011;20984;43.508;1.504;2023-07-13T00:53:42;6.60;;;2.75;;
34765;SDS011;20984;43.508;1.504;2023-07-13T00:56:08;5.57;;;3.00;;
34765;SDS011;20984;43.508;1.504;2023-07-13T00:58:34;5.65;;;3.25;;
34765;SDS011;20984;43.508;1.504;2023-07-13T01:01:00;9.07;;;3.28;;
34765;SDS011;20984;43.508;1.504;2023-07-13T01:03:26;7.15;;;4.13;;
34765;SDS011;20984;43.508;1.504;2023-07-13T01:05:52;9.38;;;3.08;;
34765;SDS011;20984;43.508;1.504;2023-07-13T01:08:19;3.53;;;2.33;;
34765;SDS011;20984;43.508;1.504;2023-07-13T01:10:56;4.10;;;2.85;;
34765;SDS011;20984;43.508;1.504;2023-07-13T01:13:23;3.83;;;2.83;;
34765;SDS011;20984;43.508;1.504;2023-07-13T01:15:49;4.80;;;2.92;;
34765;SDS011;20984;43.508;1.504;2023-07-13T01:18:20;4.47;;;2.70;;
34765;SDS011;20984;43.508;1.504;2023-07-13T01:20:53;4.47;;;2.88;;
34765;SDS011;20984;43.508;1.504;2023-07-13T01:23:20;6.07;;;2.50;;
34765;SDS011;20984;43.508;1.504;2023-07-13T01:25:47;7.28;;;3.10;;
34765;SDS011;20984;43.508;1.504;2023-07-13T01:28:13;7.50;;;3.25;;
34765;SDS011;20984;43.508;1.504;2023-07-13T01:30:39;3.88;;;2.78;;
34765;SDS011;20984;43.508;1.504;2023-07-13T01:33:06;4.72;;;2.50;;
34765;SDS011;20984;43.508;1.504;2023-07-13T01:35:33;4.03;;;2.90;;
34765;SDS011;20984;43.508;1.504;2023-07-13T01:37:59;4.10;;;2.58;;
34765;SDS011;20984;43.508;1.504;2023-07-13T01:40:26;8.23;;;2.67;;
34765;SDS011;20984;43.508;1.504;2023-07-13T01:42:53;3.78;;;2.38;;
34765;SDS011;20984;43.508;1.504;2023-07-13T01:45:18;2.60;;;2.03;;
34765;SDS011;20984;43.508;1.504;2023-07-13T01:47:44;3.92;;;2.42;;
34765;SDS011;20984;43.508;1.504;2023-07-13T01:50:10;8.05;;;2.75;;
34765;SDS011;20984;43.508;1.504;2023-07-13T01:52:35;6.38;;;2.50;;
34765;SDS011;20984;43.508;1.504;2023-07-13T01:55:02;4.55;;;2.38;;
34765;SDS011;20984;43.508;1.504;2023-07-13T01:57:27;7.20;;;2.85;;
34765;SDS011;20984;43.508;1.504;2023-07-13T01:59:53;3.13;;;2.40;;
34765;SDS011;20984;43.508;1.504;2023-07-13T02:02:19;4.05;;;2.33;;
34765;SDS011;20984;43.508;1.504;2023-07-13T02:04:45;3.75;;;2.17;;
34765;SDS011;20984;43.508;1.504;2023-07-13T02:07:10;5.63;;;2.42;;
34765;SDS011;20984;43.508;1.504;2023-07-13T02:09:36;6.55;;;2.78;;
34765;SDS011;20984;43.508;1.504;2023-07-13T02:12:02;3.85;;;2.00;;
34765;SDS011;20984;43.508;1.504;2023-07-13T02:14:28;3.95;;;2.42;;
34765;SDS011;20984;43.508;1.504;2023-07-13T02:16:54;4.75;;;2.20;;
34765;SDS011;20984;43.508;1.504;2023-07-13T02:19:19;6.35;;;2.75;;
34765;SDS011;20984;43.508;1.504;2023-07-13T02:21:45;5.15;;;2.38;;
34765;SDS011;20984;43.508;1.504;2023-07-13T02:24:11;6.07;;;2.20;;
34765;SDS011;20984;43.508;1.504;2023-07-13T02:26:42;2.95;;;2.20;;
34765;SDS011;20984;43.508;1.504;2023-07-13T02:29:08;4.45;;;2.70;;
34765;SDS011;20984;43.508;1.504;2023-07-13T02:31:34;5.40;;;1.90;;
34765;SDS011;20984;43.508;1.504;2023-07-13T02:34:00;4.80;;;2.28;;
34765;SDS011;20984;43.508;1.504;2023-07-13T02:36:26;7.40;;;2.38;;
34765;SDS011;20984;43.508;1.504;2023-07-13T02:38:52;5.97;;;2.80;;
34765;SDS011;20984;43.508;1.504;2023-07-13T02:41:18;6.53;;;2.30;;
34765;SDS011;20984;43.508;1.504;2023-07-13T02:43:43;4.53;;;2.63;;
34765;SDS011;20984;43.508;1.504;2023-07-13T02:46:09;5.25;;;2.28;;
34765;SDS011;20984;43.508;1.504;2023-07-13T02:48:35;10.93;;;2.50;;
34765;SDS011;20984;43.508;1.504;2023-07-13T02:51:02;5.18;;;2.47;;
34765;SDS011;20984;43.508;1.504;2023-07-13T02:53:28;5.60;;;2.42;;
34765;SDS011;20984;43.508;1.504;2023-07-13T02:55:54;5.93;;;2.70;;
34765;SDS011;20984;43.508;1.504;2023-07-13T02:58:19;4.80;;;2.30;;
34765;SDS011;20984;43.508;1.504;2023-07-13T03:00:45;6.45;;;2.72;;
34765;SDS011;20984;43.508;1.504;2023-07-13T03:03:12;7.18;;;2.33;;
34765;SDS011;20984;43.508;1.504;2023-07-13T03:05:42;7.65;;;2.35;;
34765;SDS011;20984;43.508;1.504;2023-07-13T03:08:09;4.50;;;2.65;;
34765;SDS011;20984;43.508;1.504;2023-07-13T03:10:36;5.07;;;2.35;;
34765;SDS011;20984;43.508;1.504;2023-07-13T03:13:02;3.95;;;2.30;;
34765;SDS011;20984;43.508;1.504;2023-07-13T03:15:28;5.78;;;2.55;;
34765;SDS011;20984;43.508;1.504;2023-07-13T03:17:54;6.25;;;2.50;;
34765;SDS011;20984;43.508;1.504;2023-07-13T03:20:20;5.10;;;2.22;;
34765;SDS011;20984;43.508;1.504;2023-07-13T03:22:45;7.35;;;2.28;;
34765;SDS011;20984;43.508;1.504;2023-07-13T03:25:12;3.97;;;2.33;;
34765;SDS011;20984;43.508;1.504;2023-07-13T03:27:37;7.07;;;2.35;;
34765;SDS011;20984;43.508;1.504;2023-07-13T03:30:04;6.90;;;1.90;;
34765;SDS011;20984;43.508;1.504;2023-07-13T03:32:30;5.55;;;2.35;;
34765;SDS011;20984;43.508;1.504;2023-07-13T03:34:56;6.32;;;2.28;;
34765;SDS011;20984;43.508;1.504;2023-07-13T03:37:22;4.03;;;2.38;;
34765;SDS011;20984;43.508;1.504;2023-07-13T03:39:48;5.78;;;2.40;;
34765;SDS011;20984;43.508;1.504;2023-07-13T03:42:15;7.90;;;2.35;;
34765;SDS011;20984;43.508;1.504;2023-07-13T03:44:42;4.32;;;2.08;;
34765;SDS011;20984;43.508;1.504;2023-07-13T03:47:15;10.10;;;2.30;;
34765;SDS011;20984;43.508;1.504;2023-07-13T03:49:41;5.57;;;2.60;;
34765;SDS011;20984;43.508;1.504;2023-07-13T03:52:06;8.38;;;2.30;;
34765;SDS011;20984;43.508;1.504;2023-07-13T03:54:32;7.10;;;2.35;;
34765;SDS011;20984;43.508;1.504;2023-07-13T03:56:58;4.97;;;2.20;;
34765;SDS011;20984;43.508;1.504;2023-07-13T03:59:23;5.22;;;2.42;;
34765;SDS011;20984;43.508;1.504;2023-07-13T04:01:49;9.60;;;2.25;;
34765;SDS011;20984;43.508;1.504;2023-07-13T04:04:14;5.45;;;2.30;;
34765;SDS011;20984;43.508;1.504;2023-07-13T04:06:40;6.90;;;2.22;;
34765;SDS011;20984;43.508;1.504;2023-07-13T04:09:06;7.47;;;2.10;;
34765;SDS011;20984;43.508;1.504;2023-07-13T04:11:32;7.53;;;2.47;;
34765;SDS011;20984;43.508;1.504;2023-07-13T04:13:58;9.57;;;2.30;;
34765;SDS011;20984;43.508;1.504;2023-07-13T04:16:24;7.55;;;2.10;;
34765;SDS011;20984;43.508;1.504;2023-07-13T04:18:50;8.07;;;2.40;;
34765;SDS011;20984;43.508;1.504;2023-07-13T04:21:19;7.53;;;2.38;;
34765;SDS011;20984;43.508;1.504;2023-07-13T04:23:45;5.20;;;2.63;;
34765;SDS011;20984;43.508;1.504;2023-07-13T04:26:11;7.57;;;2.40;;
34765;SDS011;20984;43.508;1.504;2023-07-13T04:28:37;5.00;;;2.47;;
34765;SDS011;20984;43.508;1.504;2023-07-13T04:31:02;5.15;;;2.40;;
34765;SDS011;20984;43.508;1.504;2023-07-13T04:33:29;5.45;;;2.40;;
34765;SDS011;20984;43.508;1.504;2023-07-13T04:35:54;3.72;;;2.20;;
34765;SDS011;20984;43.508;1.504;2023-07-13T04:38:25;4.40;;;2.10;;
34765;SDS011;20984;43.508;1.504;2023-07-13T04:40:54;6.93;;;2.30;;
34765;SDS011;20984;43.508;1.504;2023-07-13T04:43:21;3.80;;;2.20;;
34765;SDS011;20984;43.508;1.504;2023-07-13T04:45:47;6.70;;;2.50;;
34765;SDS011;20984;43.508;1.504;2023-07-13T04:48:12;6.50;;;2.30;;
34765;SDS011;20984;43.508;1.504;2023-07-13T04:50:38;7.25;;;2.25;;
34765;SDS011;20984;43.508;1.504;2023-07-13T04:53:04;4.78;;;2.22;;
34765;SDS011;20984;43.508;1.504;2023-07-13T04:55:30;7.82;;;2.25;;
34765;SDS011;20984;43.508;1.504;2023-07-13T04:57:57;4.55;;;2.20;;
34765;SDS011;20984;43.508;1.504;2023-07-13T05:00:23;7.72;;;2.20;;
34765;SDS011;20984;43.508;1.504;2023-07-13T05:02:49;7.70;;;2.50;;
34765;SDS011;20984;43.508;1.504;2023-07-13T05:05:16;7.15;;;1.80;;
34765;SDS011;20984;43.508;1.504;2023-07-13T05:07:41;4.32;;;1.92;;
34765;SDS011;20984;43.508;1.504;2023-07-13T05:10:07;4.13;;;2.00;;
34765;SDS011;20984;43.508;1.504;2023-07-13T05:12:33;8.77;;;2.88;;
34765;SDS011;20984;43.508;1.504;2023-07-13T05:14:59;5.63;;;2.30;;
34765;SDS011;20984;43.508;1.504;2023-07-13T05:17:24;4.63;;;2.38;;
34765;SDS011;20984;43.508;1.504;2023-07-13T05:19:50;4.82;;;1.80;;
34765;SDS011;20984;43.508;1.504;2023-07-13T05:22:16;9.77;;;2.40;;
34765;SDS011;20984;43.508;1.504;2023-07-13T05:24:41;5.13;;;2.00;;
34765;SDS011;20984;43.508;1.504;2023-07-13T05:27:07;4.07;;;1.98;;
34765;SDS011;20984;43.508;1.504;2023-07-13T05:29:32;6.13;;;2.30;;
34765;SDS011;20984;43.508;1.504;2023-07-13T05:31:58;2.72;;;1.90;;
34765;SDS011;20984;43.508;1.504;2023-07-13T05:34:24;8.68;;;2.38;;
34765;SDS011;20984;43.508;1.504;2023-07-13T05:36:50;5.50;;;2.28;;
34765;SDS011;20984;43.508;1.504;2023-07-13T05:39:16;4.10;;;2.17;;
34765;SDS011;20984;43.508;1.504;2023-07-13T05:41:42;7.93;;;2.20;;
34765;SDS011;20984;43.508;1.504;2023-07-13T05:44:07;3.38;;;1.80;;
34765;SDS011;20984;43.508;1.504;2023-07-13T05:46:33;6.63;;;2.60;;
34765;SDS011;20984;43.508;1.504;2023-07-13T05:48:59;4.60;;;2.15;;
34765;SDS011;20984;43.508;1.504;2023-07-13T05:51:24;7.35;;;2.38;;
34765;SDS011;20984;43.508;1.504;2023-07-13T05:53:50;8.60;;;2.00;;
34765;SDS011;20984;43.508;1.504;2023-07-13T05:56:16;7.07;;;2.47;;
34765;SDS011;20984;43.508;1.504;2023-07-13T05:58:41;4.35;;;1.90;;
34765;SDS011;20984;43.508;1.504;2023-07-13T06:01:11;3.63;;;1.98;;
34765;SDS011;20984;43.508;1.504;2023-07-13T06:03:38;6.85;;;2.42;;
34765;SDS011;20984;43.508;1.504;2023-07-13T06:06:05;5.85;;;2.50;;
34765;SDS011;20984;43.508;1.504;2023-07-13T06:08:31;5.25;;;2.45;;
34765;SDS011;20984;43.508;1.504;2023-07-13T06:11:04;5.18;;;1.98;;
34765;SDS011;20984;43.508;1.504;2023-07-13T06:13:31;6.20;;;1.80;;
34765;SDS011;20984;43.508;1.504;2023-07-13T06:15:58;5.25;;;1.90;;
34765;SDS011;20984;43.508;1.504;2023-07-13T06:18:24;4.55;;;2.10;;
34765;SDS011;20984;43.508;1.504;2023-07-13T06:20:49;5.13;;;1.70;;
34765;SDS011;20984;43.508;1.504;2023-07-13T06:23:15;3.95;;;1.90;;
34765;SDS011;20984;43.508;1.504;2023-07-13T06:25:40;4.60;;;1.90;;
34765;SDS011;20984;43.508;1.504;2023-07-13T06:28:07;9.60;;;1.80;;
34765;SDS011;20984;43.508;1.504;2023-07-13T06:30:33;3.78;;;1.50;;
34765;SDS011;20984;43.508;1.504;2023-07-13T06:32:59;5.43;;;1.83;;
34765;SDS011;20984;43.508;1.504;2023-07-13T06:35:24;4.60;;;1.73;;
34765;SDS011;20984;43.508;1.504;2023-07-13T06:37:50;5.15;;;1.80;;
34765;SDS011;20984;43.508;1.504;2023-07-13T06:40:16;3.03;;;1.73;;
34765;SDS011;20984;43.508;1.504;2023-07-13T06:42:42;6.05;;;1.50;;
34765;SDS011;20984;43.508;1.504;2023-07-13T06:45:08;5.88;;;1.70;;
34765;SDS011;20984;43.508;1.504;2023-07-13T06:47:34;3.70;;;1.77;;
34765;SDS011;20984;43.508;1.504;2023-07-13T06:50:00;5.22;;;1.65;;
34765;SDS011;20984;43.508;1.504;2023-07-13T06:52:26;7.07;;;1.67;;
34765;SDS011;20984;43.508;1.504;2023-07-13T06:54:51;3.88;;;1.83;;
34765;SDS011;20984;43.508;1.504;2023-07-13T06:57:17;3.80;;;1.70;;
34765;SDS011;20984;43.508;1.504;2023-07-13T06:59:43;5.10;;;1.70;;
34765;SDS011;20984;43.508;1.504;2023-07-13T07:02:09;3.90;;;1.73;;
34765;SDS011;20984;43.508;1.504;2023-07-13T07:04:35;2.63;;;1.40;;
34765;SDS011;20984;43.508;1.504;2023-07-13T07:07:01;6.03;;;2.13;;
34765;SDS011;20984;43.508;1.504;2023-07-13T07:09:27;7.00;;;1.80;;
34765;SDS011;20984;43.508;1.504;2023-07-13T07:11:54;2.42;;;1.70;;
34765;SDS011;20984;43.508;1.504;2023-07-13T07:14:20;6.85;;;1.98;;
34765;SDS011;20984;43.508;1.504;2023-07-13T07:16:46;4.65;;;1.70;;
34765;SDS011;20984;43.508;1.504;2023-07-13T07:19:11;6.97;;;1.80;;
34765;SDS011;20984;43.508;1.504;2023-07-13T07:21:37;2.97;;;1.40;;
34765;SDS011;20984;43.508;1.504;2023-07-13T07:24:02;3.85;;;1.50;;
34765;SDS011;20984;43.508;1.504;2023-07-13T07:26:29;3.08;;;1.27;;
34765;SDS011;20984;43.508;1.504;2023-07-13T07:28:55;5.22;;;1.98;;
34765;SDS011;20984;43.508;1.504;2023-07-13T07:31:21;3.13;;;1.60;;
34765;SDS011;20984;43.508;1.504;2023-07-13T07:33:46;2.88;;;1.77;;
34765;SDS011;20984;43.508;1.504;2023-07-13T07:36:14;7.93;;;1.77;;
34765;SDS011;20984;43.508;1.504;2023-07-13T07:38:41;4.15;;;1.73;;
34765;SDS011;20984;43.508;1.504;2023-07-13T07:41:07;6.00;;;1.73;;
34765;SDS011;20984;43.508;1.504;2023-07-13T07:43:32;3.97;;;1.60;;
34765;SDS011;20984;43.508;1.504;2023-07-13T07:45:58;6.47;;;2.20;;
34765;SDS011;20984;43.508;1.504;2023-07-13T07:48:24;3.33;;;1.42;;
34765;SDS011;20984;43.508;1.504;2023-07-13T07:50:49;7.22;;;1.80;;
34765;SDS011;20984;43.508;1.504;2023-07-13T07:53:15;7.68;;;1.67;;
34765;SDS011;20984;43.508;1.504;2023-07-13T07:55:41;5.63;;;1.30;;
34765;SDS011;20984;43.508;1.504;2023-07-13T07:58:06;4.18;;;1.30;;
34765;SDS011;20984;43.508;1.504;2023-07-13T08:00:33;4.75;;;1.38;;
34765;SDS011;20984;43.508;1.504;2023-07-13T08:03:00;5.43;;;1.30;;
34765;SDS011;20984;43.508;1.504;2023-07-13T08:05:26;4.13;;;1.10;;
34765;SDS011;20984;43.508;1.504;2023-07-13T08:07:52;5.38;;;1.25;;
34765;SDS011;20984;43.508;1.504;2023-07-13T08:10:18;5.22;;;1.30;;
34765;SDS011;20984;43.508;1.504;2023-07-13T08:12:44;2.83;;;1.30;;
34765;SDS011;20984;43.508;1.504;2023-07-13T08:15:11;3.85;;;1.20;;
34765;SDS011;20984;43.508;1.504;2023-07-13T08:20:06;5.32;;;1.55;;
34765;SDS011;20984;43.508;1.504;2023-07-13T08:22:33;4.20;;;1.15;;
34765;SDS011;20984;43.508;1.504;2023-07-13T08:25:00;4.38;;;1.35;;
34765;SDS011;20984;43.508;1.504;2023-07-13T08:27:26;3.50;;;1.27;;
34765;SDS011;20984;43.508;1.504;2023-07-13T08:29:53;3.95;;;1.08;;
34765;SDS011;20984;43.508;1.504;2023-07-13T08:32:19;6.30;;;1.70;;
34765;SDS011;20984;43.508;1.504;2023-07-13T08:34:46;2.90;;;1.20;;
34765;SDS011;20984;43.508;1.504;2023-07-13T08:37:12;2.95;;;1.10;;
34765;SDS011;20984;43.508;1.504;2023-07-13T08:39:38;3.65;;;1.33;;
34765;SDS011;20984;43.508;1.504;2023-07-13T08:42:11;3.75;;;1.30;;
34765;SDS011;20984;43.508;1.504;2023-07-13T08:48:25;4.10;;;1.30;;
34765;SDS011;20984;43.508;1.504;2023-07-13T08:50:59;6.78;;;1.35;;
34765;SDS011;20984;43.508;1.504;2023-07-13T08:53:37;5.72;;;1.55;;
34765;SDS011;20984;43.508;1.504;2023-07-13T08:56:09;3.22;;;1.38;;
34765;SDS011;20984;43.508;1.504;2023-07-13T08:58:41;4.50;;;1.30;;
34765;SDS011;20984;43.508;1.504;2023-07-13T09:04:03;2.30;;;1.10;;
34765;SDS011;20984;43.508;1.504;2023-07-13T09:06:37;2.40;;;1.23;;
34765;SDS011;20984;43.508;1.504;2023-07-13T09:12:28;4.00;;;1.35;;
34765;SDS011;20984;43.508;1.504;2023-07-13T09:15:25;2.30;;;1.30;;
34765;SDS011;20984;43.508;1.504;2023-07-13T09:17:56;2.22;;;1.25;;
34765;SDS011;20984;43.508;1.504;2023-07-13T09:23:07;3.58;;;1.13;;
34765;SDS011;20984;43.508;1.504;2023-07-13T09:25:39;1.90;;;1.23;;
34765;SDS011;20984;43.508;1.504;2023-07-13T09:28:29;5.30;;;2.17;;
34765;SDS011;20984;43.508;1.504;2023-07-13T09:31:06;3.22;;;1.30;;
34765;SDS011;20984;43.508;1.504;2023-07-13T09:33:37;2.58;;;1.00;;
34765;SDS011;20984;43.508;1.504;2023-07-13T09:36:48;2.50;;;1.65;;
34765;SDS011;20984;43.508;1.504;2023-07-13T09:39:14;3.22;;;1.20;;
34765;SDS011;20984;43.508;1.504;2023-07-13T09:44:27;2.95;;;1.40;;
34765;SDS011;20984;43.508;1.504;2023-07-13T09:47:00;2.63;;;1.02;;
34765;SDS011;20984;43.508;1.504;2023-07-13T09:49:27;3.00;;;1.40;;
34765;SDS011;20984;43.508;1.504;2023-07-13T09:52:05;4.47;;;1.30;;
34765;SDS011;20984;43.508;1.504;2023-07-13T09:54:35;3.08;;;1.10;;
34765;SDS011;20984;43.508;1.504;2023-07-13T09:57:02;2.35;;;1.08;;
34765;SDS011;20984;43.508;1.504;2023-07-13T09:59:39;2.60;;;1.10;;
34765;SDS011;20984;43.508;1.504;2023-07-13T10:04:58;1.60;;;0.90;;
34765;SDS011;20984;43.508;1.504;2023-07-13T10:07:26;3.45;;;1.20;;
34765;SDS011;20984;43.508;1.504;2023-07-13T10:09:55;2.60;;;1.23;;
34765;SDS011;20984;43.508;1.504;2023-07-13T10:12:22;2.50;;;0.85;;
34765;SDS011;20984;43.508;1.504;2023-07-13T10:14:50;3.00;;;0.90;;
34765;SDS011;20984;43.508;1.504;2023-07-13T10:17:20;3.17;;;1.10;;
34765;SDS011;20984;43.508;1.504;2023-07-13T10:20:04;4.80;;;1.13;;
34765;SDS011;20984;43.508;1.504;2023-07-13T10:25:19;2.88;;;1.10;;
34765;SDS011;20984;43.508;1.504;2023-07-13T10:27:47;7.80;;;1.30;;
34765;SDS011;20984;43.508;1.504;2023-07-13T10:30:33;4.68;;;1.02;;
34765;SDS011;20984;43.508;1.504;2023-07-13T10:33:04;2.33;;;0.88;;
34765;SDS011;20984;43.508;1.504;2023-07-13T10:35:36;5.13;;;1.00;;
34765;SDS011;20984;43.508;1.504;2023-07-13T10:38:14;2.28;;;1.10;;
34765;SDS011;20984;43.508;1.504;2023-07-13T10:43:25;4.00;;;1.20;;
34765;SDS011;20984;43.508;1.504;2023-07-13T10:46:05;2.92;;;1.02;;
34765;SDS011;20984;43.508;1.504;2023-07-13T10:48:36;6.18;;;1.20;;
34765;SDS011;20984;43.508;1.504;2023-07-13T10:51:05;1.33;;;0.98;;
34765;SDS011;20984;43.508;1.504;2023-07-13T10:53:35;3.05;;;0.90;;
34765;SDS011;20984;43.508;1.504;2023-07-13T10:58:39;2.60;;;0.95;;
34765;SDS011;20984;43.508;1.504;2023-07-13T11:01:13;5.60;;;1.23;;
34765;SDS011;20984;43.508;1.504;2023-07-13T11:08:36;5.28;;;1.23;;
34765;SDS011;20984;43.508;1.504;2023-07-13T11:11:47;3.17;;;1.20;;
34765;SDS011;20984;43.508;1.504;2023-07-13T11:15:01;5.80;;;1.10;;
34765;SDS011;20984;43.508;1.504;2023-07-13T11:16:54;1.88;;;1.15;;
34765;SDS011;20984;43.508;1.504;2023-07-13T11:25:37;2.53;;;1.17;;
34765;SDS011;20984;43.508;1.504;2023-07-13T11:27:50;4.93;;;1.35;;
34765;SDS011;20984;43.508;1.504;2023-07-13T11:38:22;2.00;;;1.15;;
34765;SDS011;20984;43.508;1.504;2023-07-13T11:40:50;3.28;;;1.27;;
34765;SDS011;20984;43.508;1.504;2023-07-13T11:43:18;2.45;;;1.10;;
34765;SDS011;20984;43.508;1.504;2023-07-13T11:45:44;4.00;;;1.10;;
34765;SDS011;20984;43.508;1.504;2023-07-13T11:48:19;3.75;;;1.20;;
34765;SDS011;20984;43.508;1.504;2023-07-13T11:50:51;4.40;;;1.30;;
34765;SDS011;20984;43.508;1.504;2023-07-13T11:53:30;2.55;;;1.20;;
34765;SDS011;20984;43.508;1.504;2023-07-13T11:56:04;4.32;;;1.85;;
34765;SDS011;20984;43.508;1.504;2023-07-13T11:58:31;2.72;;;0.95;;
34765;SDS011;20984;43.508;1.504;2023-07-13T12:00:58;4.93;;;1.30;;
34765;SDS011;20984;43.508;1.504;2023-07-13T12:03:27;3.15;;;1.25;;
34765;SDS011;20984;43.508;1.504;2023-07-13T12:05:57;3.85;;;1.58;;
34765;SDS011;20984;43.508;1.504;2023-07-13T12:08:26;3.63;;;1.35;;
34765;SDS011;20984;43.508;1.504;2023-07-13T12:11:25;2.90;;;1.10;;
34765;SDS011;20984;43.508;1.504;2023-07-13T12:13:45;2.75;;;1.00;;
34765;SDS011;20984;43.508;1.504;2023-07-13T12:16:17;5.32;;;1.30;;
34765;SDS011;20984;43.508;1.504;2023-07-13T12:18:49;3.72;;;1.15;;
34765;SDS011;20984;43.508;1.504;2023-07-13T12:21:18;2.13;;;1.15;;
34765;SDS011;20984;43.508;1.504;2023-07-13T12:23:47;5.60;;;1.27;;
34765;SDS011;20984;43.508;1.504;2023-07-13T12:26:14;6.05;;;1.27;;
34765;SDS011;20984;43.508;1.504;2023-07-13T12:28:49;3.08;;;1.10;;
34765;SDS011;20984;43.508;1.504;2023-07-13T12:34:09;5.00;;;1.23;;
34765;SDS011;20984;43.508;1.504;2023-07-13T12:36:38;3.00;;;1.30;;
34765;SDS011;20984;43.508;1.504;2023-07-13T12:41:49;3.22;;;1.08;;
34765;SDS011;20984;43.508;1.504;2023-07-13T12:44:17;2.10;;;0.82;;
34765;SDS011;20984;43.508;1.504;2023-07-13T12:47:12;4.28;;;1.35;;
34765;SDS011;20984;43.508;1.504;2023-07-13T12:49:40;2.28;;;1.02;;
34765;SDS011;20984;43.508;1.504;2023-07-13T12:52:14;2.83;;;1.00;;
34765;SDS011;20984;43.508;1.504;2023-07-13T12:55:13;3.00;;;1.10;;
34765;SDS011;20984;43.508;1.504;2023-07-13T12:57:43;6.03;;;1.38;;
34765;SDS011;20984;43.508;1.504;2023-07-13T13:00:22;4.15;;;1.50;;
34765;SDS011;20984;43.508;1.504;2023-07-13T13:02:58;2.95;;;1.30;;
34765;SDS011;20984;43.508;1.504;2023-07-13T13:05:28;1.83;;;0.90;;
34765;SDS011;20984;43.508;1.504;2023-07-13T13:07:55;3.22;;;1.20;;
34765;SDS011;20984;43.508;1.504;2023-07-13T13:10:22;2.75;;;1.23;;
34765;SDS011;20984;43.508;1.504;2023-07-13T13:12:49;4.00;;;1.50;;
34765;SDS011;20984;43.508;1.504;2023-07-13T13:15:15;5.05;;;1.20;;
34765;SDS011;20984;43.508;1.504;2023-07-13T13:17:42;1.90;;;1.00;;
34765;SDS011;20984;43.508;1.504;2023-07-13T13:20:18;2.05;;;1.00;;
34765;SDS011;20984;43.508;1.504;2023-07-13T13:22:45;2.53;;;1.20;;
34765;SDS011;20984;43.508;1.504;2023-07-13T13:25:11;3.28;;;1.13;;
34765;SDS011;20984;43.508;1.504;2023-07-13T13:27:37;2.20;;;1.13;;
34765;SDS011;20984;43.508;1.504;2023-07-13T13:30:10;2.92;;;1.00;;
34765;SDS011;20984;43.508;1.504;2023-07-13T13:32:38;3.33;;;1.00;;
34765;SDS011;20984;43.508;1.504;2023-07-13T13:35:16;4.95;;;1.38;;
34765;SDS011;20984;43.508;1.504;2023-07-13T13:37:44;2.50;;;1.13;;
34765;SDS011;20984;43.508;1.504;2023-07-13T13:40:17;4.15;;;1.25;;
34765;SDS011;20984;43.508;1.504;2023-07-13T13:42:46;3.08;;;1.30;;
34765;SDS011;20984;43.508;1.504;2023-07-13T13:45:11;5.20;;;1.38;;
34765;SDS011;20984;43.508;1.504;2023-07-13T13:47:38;4.72;;;1.10;;
34765;SDS011;20984;43.508;1.504;2023-07-13T13:50:21;3.20;;;0.90;;
34765;SDS011;20984;43.508;1.504;2023-07-13T13:52:47;2.70;;;0.98;;
34765;SDS011;20984;43.508;1.504;2023-07-13T13:57:40;3.35;;;1.05;;
34765;SDS011;20984;43.508;1.504;2023-07-13T14:00:07;3.83;;;1.20;;
34765;SDS011;20984;43.508;1.504;2023-07-13T14:02:34;3.97;;;1.00;;
34765;SDS011;20984;43.508;1.504;2023-07-13T14:05:03;1.63;;;0.73;;
34765;SDS011;20984;43.508;1.504;2023-07-13T14:07:32;8.18;;;1.23;;
34765;SDS011;20984;43.508;1.504;2023-07-13T14:09:58;7.03;;;1.20;;
34765;SDS011;20984;43.508;1.504;2023-07-13T14:12:26;2.58;;;0.90;;
34765;SDS011;20984;43.508;1.504;2023-07-13T14:14:54;2.40;;;0.82;;
34765;SDS011;20984;43.508;1.504;2023-07-13T14:17:22;4.10;;;1.20;;
34765;SDS011;20984;43.508;1.504;2023-07-13T14:19:51;3.03;;;1.00;;
34765;SDS011;20984;43.508;1.504;2023-07-13T14:22:22;2.25;;;1.20;;
34765;SDS011;20984;43.508;1.504;2023-07-13T14:24:49;2.70;;;0.82;;
34765;SDS011;20984;43.508;1.504;2023-07-13T14:27:15;4.03;;;0.90;;
34765;SDS011;20984;43.508;1.504;2023-07-13T14:29:40;2.22;;;0.90;;
34765;SDS011;20984;43.508;1.504;2023-07-13T14:32:10;3.33;;;0.80;;
34765;SDS011;20984;43.508;1.504;2023-07-13T14:34:36;3.25;;;0.90;;
34765;SDS011;20984;43.508;1.504;2023-07-13T14:37:02;3.50;;;1.10;;
34765;SDS011;20984;43.508;1.504;2023-07-13T14:39:29;1.90;;;0.90;;
34765;SDS011;20984;43.508;1.504;2023-07-13T14:41:55;4.65;;;0.90;;
34765;SDS011;20984;43.508;1.504;2023-07-13T14:44:26;4.05;;;1.00;;
34765;SDS011;20984;43.508;1.504;2023-07-13T14:46:54;2.75;;;1.10;;
34765;SDS011;20984;43.508;1.504;2023-07-13T14:49:34;2.25;;;0.63;;
34765;SDS011;20984;43.508;1.504;2023-07-13T14:52:24;4.55;;;0.75;;
34765;SDS011;20984;43.508;1.504;2023-07-13T14:54:50;4.70;;;0.95;;
34765;SDS011;20984;43.508;1.504;2023-07-13T14:57:17;6.25;;;0.90;;
34765;SDS011;20984;43.508;1.504;2023-07-13T14:59:44;1.77;;;0.70;;
34765;SDS011;20984;43.508;1.504;2023-07-13T15:02:30;2.90;;;0.70;;
34765;SDS011;20984;43.508;1.504;2023-07-13T15:04:58;2.83;;;0.65;;
34765;SDS011;20984;43.508;1.504;2023-07-13T15:07:24;2.20;;;0.90;;
34765;SDS011;20984;43.508;1.504;2023-07-13T15:09:50;3.25;;;0.75;;
34765;SDS011;20984;43.508;1.504;2023-07-13T15:12:16;1.23;;;0.60;;
34765;SDS011;20984;43.508;1.504;2023-07-13T15:14:42;4.28;;;0.77;;
34765;SDS011;20984;43.508;1.504;2023-07-13T15:19:56;3.75;;;0.60;;
34765;SDS011;20984;43.508;1.504;2023-07-13T15:22:22;1.88;;;0.80;;
34765;SDS011;20984;43.508;1.504;2023-07-13T15:24:48;4.72;;;1.05;;
34765;SDS011;20984;43.508;1.504;2023-07-13T15:27:13;5.20;;;0.43;;
34765;SDS011;20984;43.508;1.504;2023-07-13T15:29:39;3.63;;;0.63;;
34765;SDS011;20984;43.508;1.504;2023-07-13T15:32:11;7.03;;;0.73;;
34765;SDS011;20984;43.508;1.504;2023-07-13T15:34:39;2.58;;;0.60;;
34765;SDS011;20984;43.508;1.504;2023-07-13T15:37:13;5.10;;;0.80;;
34765;SDS011;20984;43.508;1.504;2023-07-13T15:39:41;2.00;;;0.63;;
34765;SDS011;20984;43.508;1.504;2023-07-13T15:42:12;1.50;;;0.38;;
34765;SDS011;20984;43.508;1.504;2023-07-13T17:04:30;3.47;;;0.60;;
34765;SDS011;20984;43.508;1.504;2023-07-13T17:06:56;4.03;;;0.80;;
34765;SDS011;20984;43.508;1.504;2023-07-13T17:09:22;1.33;;;0.50;;
34765;SDS011;20984;43.508;1.504;2023-07-13T17:11:49;2.83;;;0.63;;
34765;SDS011;20984;43.508;1.504;2023-07-13T17:14:18;2.03;;;0.60;;